Time;durP1;ratioP1;P1;durP2;ratioP2;P2;SDS_P1;SDS_P2;PMS_P1;PMS_P2;Temp;Humidity;BMP_temperature;BMP_pressure;BME280_temperature;BME280_humidity;BME280_pressure;Samples;Min_cycle;Max_cycle;Signal;HPM_P1;HPM_P2
2021/05/24 00:00:22;;;;;;;8.48;2.10;;;19.20;83.20;;;;;;5071939;28;20475;-59
2021/05/24 00:02:51;;;;;;;3.92;2.30;;;19.30;83.30;;;;;;5073025;28;20032;-61
2021/05/24 00:05:27;;;;;;;4.93;2.33;;;19.30;81.50;;;;;;5073559;28;20395;-59
2021/05/24 00:07:54;;;;;;;7.43;2.40;;;19.30;83.40;;;;;;5072423;28;20466;-62
2021/05/24 00:10:25;;;;;;;5.70;2.55;;;19.30;81.40;;;;;;5073340;28;20055;-58
2021/05/24 00:12:54;;;;;;;5.75;2.55;;;19.30;83.30;;;;;;5073545;28;20025;-57
2021/05/24 00:15:30;;;;;;;8.77;2.63;;;19.40;83.00;;;;;;5072676;28;20043;-60
2021/05/24 00:17:58;;;;;;;8.52;2.22;;;19.30;82.30;;;;;;5073134;28;20463;-59
2021/05/24 00:20:29;;;;;;;4.45;2.08;;;19.30;83.10;;;;;;5072696;28;20353;-59
2021/05/24 00:22:57;;;;;;;6.70;2.63;;;19.30;83.20;;;;;;5072967;28;20025;-61
2021/05/24 00:25:25;;;;;;;15.40;2.92;;;19.20;85.20;;;;;;5072005;28;20060;-59
2021/05/24 00:27:52;;;;;;;2.25;1.50;;;19.10;82.60;;;;;;5073117;28;20020;-55
2021/05/24 00:30:20;;;;;;;4.68;1.98;;;19.10;81.90;;;;;;5072816;28;20193;-63
2021/05/24 00:32:48;;;;;;;6.60;1.83;;;19.00;82.20;;;;;;5072694;28;20401;-56
2021/05/24 00:35:15;;;;;;;5.60;2.90;;;18.90;84.00;;;;;;5072776;28;20039;-55
2021/05/24 00:37:43;;;;;;;4.82;1.75;;;18.90;83.90;;;;;;5072914;28;20104;-58
2021/05/24 00:40:11;;;;;;;4.68;2.42;;;18.90;83.60;;;;;;5072481;28;20028;-59
2021/05/24 00:42:38;;;;;;;4.68;1.95;;;18.80;83.70;;;;;;5072342;28;20024;-59
2021/05/24 00:45:07;;;;;;;2.30;1.48;;;18.70;84.60;;;;;;5072357;28;20040;-59
2021/05/24 00:47:35;;;;;;;4.88;2.00;;;18.70;84.70;;;;;;5072339;28;20078;-62
2021/05/24 00:50:03;;;;;;;4.55;2.10;;;18.60;84.10;;;;;;5072635;28;20100;-59
2021/05/24 00:52:31;;;;;;;4.10;2.22;;;18.50;84.20;;;;;;5072709;28;20498;-54
2021/05/24 00:54:58;;;;;;;6.05;2.05;;;18.50;84.40;;;;;;5072254;28;20063;-50
2021/05/24 00:57:26;;;;;;;5.10;1.92;;;18.40;85.60;;;;;;5072173;28;20359;-56
2021/05/24 00:59:56;;;;;;;4.80;2.05;;;18.40;84.60;;;;;;5072160;28;20021;-56
2021/05/24 01:02:23;;;;;;;3.38;2.08;;;18.30;85.70;;;;;;5072298;28;20040;-53
2021/05/24 01:04:51;;;;;;;4.88;2.15;;;18.30;85.80;;;;;;5071098;28;20040;-57
2021/05/24 01:07:18;;;;;;;2.80;1.35;;;18.30;86.60;;;;;;5072176;28;20034;-59
2021/05/24 01:09:45;;;;;;;3.97;1.92;;;18.20;85.70;;;;;;5072250;28;20082;-59
2021/05/24 01:12:14;;;;;;;8.27;6.35;;;18.30;88.70;;;;;;5072214;28;20131;-54
2021/05/24 01:14:42;;;;;;;3.20;2.10;;;18.30;88.20;;;;;;5071878;28;20067;-55
2021/05/24 01:17:09;;;;;;;6.75;2.38;;;18.20;87.70;;;;;;5072343;28;20020;-59
2021/05/24 01:19:45;;;;;;;6.97;2.40;;;18.20;86.90;;;;;;5072064;28;20108;-57
2021/05/24 01:22:19;;;;;;;6.30;2.22;;;18.20;88.70;;;;;;5072424;28;20052;-58
2021/05/24 01:24:48;;;;;;;4.18;1.80;;;18.20;88.30;;;;;;5071853;28;20040;-60
2021/05/24 01:27:16;;;;;;;3.60;2.05;;;18.10;87.60;;;;;;5072139;28;20021;-60
2021/05/24 01:29:43;;;;;;;2.67;1.55;;;18.10;86.90;;;;;;5072007;28;20063;-59
2021/05/24 01:32:11;;;;;;;4.78;1.92;;;18.10;88.70;;;;;;5072169;28;20070;-60
2021/05/24 01:34:40;;;;;;;7.97;2.65;;;18.10;88.20;;;;;;5071019;28;20021;-59
2021/05/24 01:37:08;;;;;;;4.63;2.05;;;18.10;87.70;;;;;;5071682;28;20024;-61
2021/05/24 01:39:35;;;;;;;4.28;1.65;;;18.00;87.40;;;;;;5071897;28;20052;-58
2021/05/24 01:42:02;;;;;;;4.38;2.08;;;18.10;87.90;;;;;;5071699;28;20100;-53
2021/05/24 01:44:38;;;;;;;4.15;1.92;;;18.00;87.50;;;;;;5071416;28;20040;-59
2021/05/24 01:47:07;;;;;;;3.00;1.67;;;18.00;88.40;;;;;;5072154;28;20059;-52
2021/05/24 01:49:36;;;;;;;4.22;1.90;;;18.00;89.50;;;;;;5072095;28;20024;-57
2021/05/24 01:52:06;;;;;;;3.42;1.65;;;18.00;88.70;;;;;;5071999;28;20161;-54
2021/05/24 01:54:34;;;;;;;4.30;1.98;;;18.10;89.30;;;;;;5071479;28;20036;-61
2021/05/24 01:57:01;;;;;;;3.03;1.70;;;18.10;89.50;;;;;;5071935;28;20028;-57
2021/05/24 01:59:28;;;;;;;4.82;2.10;;;18.10;87.90;;;;;;5071809;28;20378;-56
2021/05/24 02:01:56;;;;;;;4.55;1.98;;;18.10;90.30;;;;;;5071920;28;20016;-61
2021/05/24 02:04:23;;;;;;;6.97;2.20;;;18.10;89.40;;;;;;5070510;28;20047;-56
2021/05/24 02:06:51;;;;;;;3.65;1.92;;;18.10;89.00;;;;;;5071662;28;20092;-60
2021/05/24 02:09:18;;;;;;;4.13;1.88;;;18.00;88.30;;;;;;5071590;28;20031;-59
2021/05/24 02:11:45;;;;;;;2.25;1.90;;;18.00;88.20;;;;;;5071306;28;20534;-61
2021/05/24 02:14:13;;;;;;;3.25;1.60;;;18.00;88.90;;;;;;5070470;28;20028;-59
2021/05/24 02:16:43;;;;;;;3.42;1.67;;;18.00;89.50;;;;;;5071242;28;20035;-58
2021/05/24 02:19:11;;;;;;;4.07;1.55;;;18.10;89.40;;;;;;5071518;28;20029;-60
2021/05/24 02:21:40;;;;;;;3.15;1.50;;;18.10;89.70;;;;;;5063490;28;20044;-54
2021/05/24 02:24:09;;;;;;;2.67;1.70;;;18.10;88.90;;;;;;5069543;28;20048;-56
2021/05/24 02:26:37;;;;;;;2.67;1.42;;;18.10;88.90;;;;;;5066822;28;20383;-62
2021/05/24 02:29:08;;;;;;;3.67;1.67;;;18.10;88.80;;;;;;5068534;28;20036;-54
2021/05/24 02:31:36;;;;;;;4.22;2.00;;;18.10;88.10;;;;;;5065945;28;20045;-57
2021/05/24 02:34:05;;;;;;;3.97;2.08;;;18.20;89.50;;;;;;5066664;28;20479;-61
2021/05/24 02:36:34;;;;;;;2.72;1.50;;;18.20;87.50;;;;;;5068397;28;20515;-54
2021/05/24 02:39:05;;;;;;;2.28;1.73;;;18.20;87.50;;;;;;5070497;28;20447;-51
2021/05/24 02:41:33;;;;;;;2.60;1.33;;;18.20;87.90;;;;;;5064515;28;20089;-57
2021/05/24 02:44:00;;;;;;;4.35;1.60;;;18.20;87.40;;;;;;5069095;28;20055;-54
2021/05/24 02:46:28;;;;;;;3.80;1.63;;;18.30;88.20;;;;;;5070555;28;20038;-50
2021/05/24 02:48:55;;;;;;;4.88;1.63;;;18.30;87.70;;;;;;5071010;28;20024;-50
2021/05/24 02:51:22;;;;;;;2.63;1.42;;;18.30;87.80;;;;;;5068121;28;20024;-54
2021/05/24 02:53:50;;;;;;;5.45;1.33;;;18.30;87.80;;;;;;5070901;28;20112;-57
2021/05/24 02:56:18;;;;;;;2.13;1.70;;;18.30;87.40;;;;;;5072443;28;20021;-55
2021/05/24 02:58:45;;;;;;;3.08;1.70;;;18.40;87.10;;;;;;5071463;28;20024;-54
2021/05/24 03:01:13;;;;;;;4.30;2.03;;;18.40;87.00;;;;;;5068725;28;20510;-61
2021/05/24 03:03:41;;;;;;;4.57;1.85;;;18.40;87.10;;;;;;5072226;28;20024;-52
2021/05/24 03:06:09;;;;;;;3.40;1.80;;;18.50;88.10;;;;;;5070734;28;20032;-60
2021/05/24 03:08:36;;;;;;;4.57;1.73;;;18.50;87.20;;;;;;5070955;28;20028;-58
2021/05/24 03:11:04;;;;;;;2.58;1.70;;;18.50;87.10;;;;;;5068650;28;20139;-53
2021/05/24 03:13:31;;;;;;;2.78;1.67;;;18.50;87.10;;;;;;5068228;28;20024;-58
2021/05/24 03:15:58;;;;;;;3.03;1.73;;;18.60;86.90;;;;;;5071927;28;20048;-55
2021/05/24 03:18:26;;;;;;;5.82;1.80;;;18.60;87.50;;;;;;5071382;28;20025;-51
2021/05/24 03:20:53;;;;;;;4.13;1.88;;;18.60;87.40;;;;;;5069252;28;20051;-56
2021/05/24 03:23:20;;;;;;;5.18;2.08;;;18.60;87.00;;;;;;5071488;28;20040;-47
2021/05/24 03:25:48;;;;;;;4.47;2.35;;;18.60;87.10;;;;;;5070872;28;20090;-54
2021/05/24 03:28:15;;;;;;;4.10;2.17;;;18.60;86.90;;;;;;5071174;28;20477;-54
2021/05/24 03:30:42;;;;;;;3.78;1.70;;;18.70;87.20;;;;;;5071159;28;20352;-52
2021/05/24 03:33:10;;;;;;;5.50;2.10;;;18.70;86.80;;;;;;5068003;28;20024;-52
2021/05/24 03:35:37;;;;;;;7.57;1.80;;;18.70;86.70;;;;;;5068597;28;20660;-51
2021/05/24 03:38:05;;;;;;;12.80;2.35;;;18.70;86.50;;;;;;5071589;28;20024;-56
2021/05/24 03:40:32;;;;;;;17.30;3.63;;;18.80;86.80;;;;;;5071360;28;20036;-53
2021/05/24 03:43:00;;;;;;;10.68;3.35;;;18.80;86.60;;;;;;5067300;28;20039;-54
2021/05/24 03:45:31;;;;;;;12.52;4.38;;;18.80;86.90;;;;;;5071263;28;20033;-52
2021/05/24 03:47:59;;;;;;;10.20;3.72;;;18.80;86.80;;;;;;5071631;28;20024;-56
2021/05/24 03:50:26;;;;;;;16.83;4.13;;;18.80;86.90;;;;;;5070159;28;20511;-51
2021/05/24 03:52:54;;;;;;;11.35;3.83;;;18.90;86.90;;;;;;5068406;28;20027;-63
2021/05/24 03:55:21;;;;;;;16.58;3.58;;;18.80;87.20;;;;;;5071477;28;20091;-61
2021/05/24 03:57:51;;;;;;;14.27;4.05;;;18.90;87.00;;;;;;5070465;28;20033;-54
2021/05/24 04:00:19;;;;;;;13.15;3.25;;;18.90;86.90;;;;;;5067957;28;20533;-49
2021/05/24 04:02:46;;;;;;;14.93;3.63;;;18.90;86.80;;;;;;5067019;28;20029;-62
2021/05/24 04:07:49;;;;;;;8.43;3.05;;;18.90;87.30;;;;;;5071116;28;20104;-58
2021/05/24 04:10:18;;;;;;;9.80;2.80;;;19.00;86.80;;;;;;5067673;28;20482;-59
2021/05/24 04:12:46;;;;;;;8.73;3.05;;;19.00;86.60;;;;;;5065212;28;20032;-51
2021/05/24 04:15:15;;;;;;;9.23;2.83;;;19.00;86.80;;;;;;5072565;28;20033;-52
2021/05/24 04:17:43;;;;;;;10.63;2.67;;;19.00;86.90;;;;;;5070935;28;20031;-53
2021/05/24 04:20:12;;;;;;;9.20;2.85;;;19.10;86.70;;;;;;5070373;28;20212;-49
2021/05/24 04:22:43;;;;;;;12.50;3.38;;;19.00;86.50;;;;;;5066466;28;20351;-57
2021/05/24 04:25:11;;;;;;;8.63;3.33;;;19.10;86.60;;;;;;5070535;28;20043;-52
2021/05/24 04:27:39;;;;;;;10.77;3.38;;;19.10;86.30;;;;;;5070787;28;20032;-56
2021/05/24 04:30:09;;;;;;;11.93;2.53;;;19.10;86.30;;;;;;5069638;28;20040;-58
2021/05/24 04:32:36;;;;;;;13.43;3.33;;;19.20;86.50;;;;;;5067230;28;20054;-58
2021/05/24 04:35:04;;;;;;;13.45;2.97;;;19.20;86.50;;;;;;5070816;28;20025;-58
2021/05/24 04:37:32;;;;;;;9.13;3.25;;;19.20;86.10;;;;;;5070261;28;20471;-55
2021/05/24 04:39:59;;;;;;;9.48;2.55;;;19.20;86.10;;;;;;5071438;28;20100;-58
2021/05/24 04:42:26;;;;;;;9.18;3.13;;;19.20;86.40;;;;;;5072056;28;20029;-58
2021/05/24 04:44:55;;;;;;;13.32;4.03;;;19.20;85.90;;;;;;5072207;28;20166;-59
2021/05/24 04:47:22;;;;;;;9.07;2.53;;;19.10;86.10;;;;;;5072440;28;20020;-60
2021/05/24 04:49:50;;;;;;;12.00;2.88;;;19.20;86.40;;;;;;5072673;28;20107;-59
2021/05/24 04:52:19;;;;;;;10.75;2.90;;;19.20;86.10;;;;;;5072479;28;20063;-59
2021/05/24 04:54:47;;;;;;;8.20;2.58;;;19.20;86.50;;;;;;5072696;28;20475;-57
2021/05/24 04:57:15;;;;;;;10.00;3.08;;;19.10;86.30;;;;;;5072527;28;20025;-58
2021/05/24 04:59:42;;;;;;;10.13;2.80;;;19.10;86.20;;;;;;5072162;28;20078;-59
2021/05/24 05:02:09;;;;;;;7.65;2.72;;;19.10;86.40;;;;;;5072668;28;20418;-60
2021/05/24 05:04:37;;;;;;;7.30;2.40;;;19.10;86.30;;;;;;5072149;28;20044;-56
2021/05/24 05:07:04;;;;;;;10.13;3.53;;;19.00;86.30;;;;;;5071244;28;20080;-57
2021/05/24 05:09:32;;;;;;;6.05;2.17;;;19.10;86.90;;;;;;5071383;28;20032;-59
2021/05/24 05:11:59;;;;;;;7.68;2.65;;;19.10;86.50;;;;;;5072394;28;20060;-58
2021/05/24 05:14:26;;;;;;;6.63;2.60;;;19.00;86.60;;;;;;5071783;28;20337;-56
2021/05/24 05:16:54;;;;;;;9.35;3.22;;;19.00;87.20;;;;;;5072133;28;20025;-60
2021/05/24 05:19:21;;;;;;;8.85;2.58;;;19.00;86.70;;;;;;5071947;28;20024;-55
2021/05/24 05:21:50;;;;;;;11.45;2.67;;;18.90;87.10;;;;;;5072051;28;20386;-60
2021/05/24 05:24:18;;;;;;;6.82;2.70;;;18.90;86.80;;;;;;5071926;28;20119;-57
2021/05/24 05:26:45;;;;;;;8.38;2.67;;;18.90;86.90;;;;;;5071780;28;20107;-58
2021/05/24 05:29:13;;;;;;;9.90;2.72;;;18.90;87.40;;;;;;5071788;28;20070;-57
2021/05/24 05:31:40;;;;;;;7.07;2.22;;;18.90;87.10;;;;;;5071936;28;20543;-61
2021/05/24 05:34:08;;;;;;;8.85;2.58;;;18.90;87.10;;;;;;5071616;28;20029;-55
2021/05/24 05:36:36;;;;;;;8.38;2.42;;;18.90;87.10;;;;;;5072063;28;20372;-60
2021/05/24 05:39:06;;;;;;;7.85;2.80;;;18.80;87.30;;;;;;5071727;28;20157;-57
2021/05/24 05:41:35;;;;;;;6.18;2.20;;;18.80;87.30;;;;;;5071586;28;20478;-58
2021/05/24 05:44:04;;;;;;;10.60;2.95;;;18.80;87.50;;;;;;5070968;28;20028;-58
2021/05/24 05:46:32;;;;;;;9.85;2.72;;;18.80;87.60;;;;;;5070612;28;20033;-60
2021/05/24 05:48:59;;;;;;;5.32;1.83;;;18.70;87.60;;;;;;5071329;28;20490;-57
2021/05/24 05:51:27;;;;;;;6.55;2.28;;;18.70;87.90;;;;;;5071975;28;20074;-62
2021/05/24 05:53:58;;;;;;;10.65;2.80;;;18.80;87.90;;;;;;5071996;28;20035;-57
2021/05/24 05:56:25;;;;;;;9.02;2.70;;;18.70;87.70;;;;;;5071260;28;20063;-59
2021/05/24 05:58:52;;;;;;;9.93;2.95;;;18.70;87.90;;;;;;5072033;28;20548;-60
2021/05/24 06:01:21;;;;;;;7.53;2.80;;;18.70;87.80;;;;;;5072168;28;20017;-56
2021/05/24 06:03:49;;;;;;;7.70;2.80;;;18.70;88.10;;;;;;5064406;28;20043;-54
2021/05/24 06:06:18;;;;;;;8.48;2.40;;;18.60;88.30;;;;;;5069462;28;20029;-50
2021/05/24 06:08:46;;;;;;;6.05;2.25;;;18.60;88.20;;;;;;5069288;28;20028;-54
2021/05/24 06:11:13;;;;;;;9.32;3.03;;;18.60;88.10;;;;;;5069001;28;20494;-58
2021/05/24 06:13:41;;;;;;;6.47;1.60;;;18.70;88.30;;;;;;5067770;28;20086;-60
2021/05/24 06:16:08;;;;;;;9.80;2.50;;;18.70;88.00;;;;;;5065872;28;20368;-55
2021/05/24 06:18:36;;;;;;;6.07;1.85;;;18.70;87.90;;;;;;5068201;28;20506;-57
2021/05/24 06:21:03;;;;;;;11.70;2.28;;;18.70;88.00;;;;;;5069979;28;20040;-55
2021/05/24 06:23:30;;;;;;;7.28;2.25;;;18.70;88.10;;;;;;5071778;28;20028;-58
2021/05/24 06:25:58;;;;;;;7.55;2.50;;;18.70;88.00;;;;;;5071423;28;20040;-56
2021/05/24 06:28:25;;;;;;;4.60;1.95;;;18.70;88.00;;;;;;5069820;28;20371;-59
2021/05/24 06:30:52;;;;;;;7.47;2.40;;;18.70;87.90;;;;;;5071763;28;20024;-51
2021/05/24 06:33:20;;;;;;;5.60;1.88;;;18.70;87.90;;;;;;5072430;28;20103;-61
2021/05/24 06:35:47;;;;;;;5.28;1.92;;;18.70;87.90;;;;;;5068357;28;20027;-61
2021/05/24 06:38:14;;;;;;;5.88;2.33;;;18.70;88.00;;;;;;5068818;28;20483;-54
2021/05/24 06:40:42;;;;;;;8.27;2.50;;;18.70;88.00;;;;;;5071722;28;20038;-59
2021/05/24 06:43:09;;;;;;;6.07;1.85;;;18.70;88.10;;;;;;5071524;28;20032;-56
2021/05/24 06:45:36;;;;;;;7.45;2.22;;;18.70;87.90;;;;;;5072241;28;20504;-53
2021/05/24 06:48:04;;;;;;;4.82;1.83;;;18.70;88.10;;;;;;5067918;28;20039;-54
2021/05/24 06:50:31;;;;;;;5.40;2.17;;;18.60;88.10;;;;;;5071268;28;20024;-57
2021/05/24 06:52:59;;;;;;;3.42;1.73;;;18.60;88.10;;;;;;5072298;28;20521;-62
2021/05/24 06:55:26;;;;;;;7.13;1.85;;;18.70;88.20;;;;;;5071964;28;20376;-57
2021/05/24 06:57:54;;;;;;;5.82;1.90;;;18.70;88.20;;;;;;5067779;28;20058;-61
2021/05/24 07:00:21;;;;;;;5.03;1.98;;;18.70;88.10;;;;;;5070489;28;20028;-54
2021/05/24 07:02:49;;;;;;;5.82;2.15;;;18.70;88.10;;;;;;5072042;28;20024;-55
2021/05/24 07:05:17;;;;;;;3.67;1.60;;;18.70;88.00;;;;;;5069757;28;20666;-56
2021/05/24 07:07:44;;;;;;;6.25;2.17;;;18.70;88.00;;;;;;5068293;28;20032;-50
2021/05/24 07:10:13;;;;;;;7.32;1.90;;;18.60;87.90;;;;;;5071261;28;20031;-57
2021/05/24 07:12:40;;;;;;;5.65;2.10;;;18.60;88.00;;;;;;5071634;28;20036;-59
2021/05/24 07:15:08;;;;;;;6.30;2.28;;;18.60;88.10;;;;;;5070802;28;20498;-57
2021/05/24 07:17:36;;;;;;;8.63;3.97;;;18.60;88.10;;;;;;5068457;28;20097;-59
2021/05/24 07:20:05;;;;;;;9.73;4.63;;;18.60;88.50;;;;;;5071514;28;20828;-55
2021/05/24 07:22:35;;;;;;;9.40;5.65;;;18.60;88.60;;;;;;5070815;28;20095;-63
2021/05/24 07:25:04;;;;;;;11.05;4.90;;;18.60;88.50;;;;;;5071284;28;20055;-52
2021/05/24 07:27:32;;;;;;;9.18;4.30;;;18.60;88.50;;;;;;5067726;28;20017;-55
2021/05/24 07:29:59;;;;;;;7.88;4.95;;;18.50;88.30;;;;;;5070281;28;20078;-51
2021/05/24 07:32:26;;;;;;;6.18;4.00;;;18.50;88.90;;;;;;5071097;28;20121;-55
2021/05/24 07:34:54;;;;;;;9.40;7.00;;;18.50;88.00;;;;;;5073629;28;20028;-53
2021/05/24 07:37:21;;;;;;;13.75;3.25;;;18.50;89.10;;;;;;5073624;28;20029;-56
2021/05/24 07:39:48;;;;;;;18.50;5.00;;;18.40;88.10;;;;;;5073313;28;20029;-52
2021/05/24 07:42:16;;;;;;;19.67;5.70;;;18.40;88.90;;;;;;5073015;28;20083;-57
2021/05/24 07:44:43;;;;;;;10.80;6.78;;;18.40;89.20;;;;;;5073790;28;20082;-60
2021/05/24 07:47:10;;;;;;;12.15;7.88;;;18.40;90.00;;;;;;5073491;28;20100;-55
2021/05/24 07:49:38;;;;;;;11.95;8.95;;;18.40;89.80;;;;;;5073762;28;20442;-55
2021/05/24 07:52:06;;;;;;;29.33;12.23;;;18.40;89.50;;;;;;5072755;28;20124;-55
2021/05/24 07:54:33;;;;;;;16.65;8.25;;;18.50;89.30;;;;;;5073634;28;20467;-54
2021/05/24 07:57:01;;;;;;;12.68;8.93;;;18.50;89.60;;;;;;5073622;28;20043;-56
2021/05/24 07:59:29;;;;;;;13.35;7.70;;;18.50;89.80;;;;;;5072516;28;20032;-58
2021/05/24 08:01:59;;;;;;;13.52;11.23;;;18.50;89.70;;;;;;5073555;28;20105;-57
2021/05/24 08:04:27;;;;;;;13.15;10.02;;;18.50;89.80;;;;;;5073230;28;20029;-57
2021/05/24 08:06:54;;;;;;;15.77;10.73;;;18.50;89.70;;;;;;5073097;28;20028;-56
2021/05/24 08:09:22;;;;;;;22.10;7.00;;;18.50;90.10;;;;;;5073268;28;20024;-55
2021/05/24 08:11:50;;;;;;;13.80;9.02;;;18.40;90.10;;;;;;5072865;28;20052;-55
2021/05/24 08:14:18;;;;;;;13.52;8.35;;;18.40;90.40;;;;;;5071483;28;20020;-62
2021/05/24 08:16:49;;;;;;;24.08;7.40;;;18.50;90.40;;;;;;5070939;28;20406;-55
2021/05/24 08:19:17;;;;;;;13.68;6.45;;;18.50;90.50;;;;;;5071900;28;20032;-57
2021/05/24 08:21:46;;;;;;;14.00;5.78;;;18.60;90.40;;;;;;5072537;28;20024;-56
2021/05/24 08:24:15;;;;;;;17.38;6.32;;;18.60;90.30;;;;;;5072001;28;20467;-58
2021/05/24 08:26:46;;;;;;;12.15;5.18;;;18.60;90.40;;;;;;5072338;28;20022;-58
2021/05/24 08:29:15;;;;;;;17.85;5.38;;;18.60;90.10;;;;;;5072829;28;20505;-55
2021/05/24 08:31:42;;;;;;;10.10;4.80;;;18.60;90.30;;;;;;5073058;28;20036;-57
2021/05/24 08:34:10;;;;;;;12.20;4.72;;;18.50;90.30;;;;;;5072761;28;20478;-56
2021/05/24 08:36:42;;;;;;;25.48;16.13;;;18.50;90.40;;;;;;5072533;28;20405;-65
2021/05/24 08:39:09;;;;;;;28.65;19.13;;;18.50;90.30;;;;;;5073014;28;20490;-62
2021/05/24 08:41:37;;;;;;;16.38;11.60;;;18.60;90.40;;;;;;5072341;28;20033;-61
2021/05/24 08:44:06;;;;;;;11.82;6.93;;;18.60;90.50;;;;;;5072472;28;20028;-57
2021/05/24 08:46:34;;;;;;;23.45;8.63;;;18.60;90.70;;;;;;5072587;28;20076;-58
2021/05/24 08:49:01;;;;;;;25.35;13.52;;;18.60;91.10;;;;;;5072183;28;20040;-56
2021/05/24 08:51:29;;;;;;;17.83;8.40;;;18.60;91.20;;;;;;5072694;28;20407;-51
2021/05/24 08:53:57;;;;;;;23.77;10.48;;;18.60;91.50;;;;;;5072489;28;20024;-56
2021/05/24 08:56:24;;;;;;;21.02;13.40;;;18.70;91.80;;;;;;5072245;28;20028;-58
2021/05/24 08:58:58;;;;;;;22.67;11.75;;;18.80;92.00;;;;;;5072484;28;20525;-57
2021/05/24 09:01:26;;;;;;;26.70;13.90;;;18.80;92.00;;;;;;5072440;28;20036;-53
2021/05/24 09:04:05;;;;;;;35.85;20.08;;;18.80;92.40;;;;;;5072194;28;20518;-59
2021/05/24 09:06:48;;;;;;;36.00;22.27;;;18.90;92.40;;;;;;5072169;28;20380;-57
2021/05/24 09:09:17;;;;;;;24.15;17.05;;;18.80;92.30;;;;;;5072371;28;20021;-58
2021/05/24 09:11:46;;;;;;;27.38;21.50;;;18.80;92.60;;;;;;5071963;28;20056;-56
2021/05/24 09:14:15;;;;;;;21.02;17.08;;;18.90;92.90;;;;;;5062526;28;20111;-53
2021/05/24 09:16:42;;;;;;;27.25;18.23;;;18.90;92.50;;;;;;5063046;28;20745;-53
2021/05/24 09:19:15;;;;;;;31.73;21.52;;;18.80;92.60;;;;;;5069419;28;20061;-53
2021/05/24 09:21:53;;;;;;;20.58;13.88;;;18.90;92.60;;;;;;5065438;28;20090;-57
2021/05/24 09:24:32;;;;;;;17.98;11.25;;;18.90;92.50;;;;;;5063123;28;20033;-53
2021/05/24 09:27:01;;;;;;;33.35;21.77;;;18.90;92.30;;;;;;5070796;28;20032;-49
2021/05/24 09:29:42;;;;;;;24.15;14.02;;;18.90;92.40;;;;;;5066096;28;20078;-50
2021/05/24 09:32:29;;;;;;;23.60;9.70;;;18.90;92.40;;;;;;5065643;28;20463;-49
2021/05/24 09:35:02;;;;;;;18.90;8.45;;;18.90;92.30;;;;;;5069365;28;20032;-51
2021/05/24 09:37:32;;;;;;;15.90;7.68;;;18.90;92.40;;;;;;5061586;28;20095;-63
2021/05/24 09:40:00;;;;;;;15.25;6.90;;;18.90;91.90;;;;;;5067894;28;20544;-48
2021/05/24 09:42:41;;;;;;;18.63;7.07;;;18.90;91.80;;;;;;5068690;28;20083;-60
2021/05/24 09:45:17;;;;;;;17.90;7.20;;;18.90;91.60;;;;;;5069182;28;20056;-53
2021/05/24 09:47:47;;;;;;;25.60;7.82;;;18.90;91.90;;;;;;5068356;28;20016;-50
2021/05/24 09:50:20;;;;;;;14.00;7.32;;;18.90;91.90;;;;;;5063571;28;20035;-52
2021/05/24 09:52:49;;;;;;;21.88;7.15;;;18.90;91.80;;;;;;5065693;28;20099;-51
2021/05/24 09:55:22;;;;;;;31.52;7.40;;;18.90;92.00;;;;;;5061787;28;20040;-55
2021/05/24 09:57:57;;;;;;;17.63;7.10;;;18.90;92.10;;;;;;5073318;28;20118;-57
2021/05/24 10:00:39;;;;;;;17.10;6.78;;;18.90;91.90;;;;;;5073378;28;20360;-59
2021/05/24 10:03:09;;;;;;;14.50;5.90;;;18.90;92.20;;;;;;5074946;28;20021;-50
2021/05/24 10:05:49;;;;;;;17.73;7.07;;;18.90;92.00;;;;;;5069061;28;20044;-56
2021/05/24 10:08:17;;;;;;;29.73;7.60;;;18.90;92.30;;;;;;5067176;28;20040;-55
2021/05/24 10:10:44;;;;;;;22.38;7.07;;;18.90;92.30;;;;;;5069235;28;20048;-51
2021/05/24 10:13:12;;;;;;;21.50;6.78;;;18.90;92.30;;;;;;5071987;28;20024;-39
2021/05/24 10:15:42;;;;;;;29.67;7.53;;;18.90;92.40;;;;;;5070680;28;20029;-52
2021/05/24 10:18:11;;;;;;;13.75;6.05;;;18.90;92.50;;;;;;5070647;28;20025;-51
2021/05/24 10:20:39;;;;;;;17.95;6.85;;;18.90;92.50;;;;;;5068965;28;20035;-44
2021/05/24 10:23:06;;;;;;;15.77;6.85;;;18.90;92.50;;;;;;5072627;28;20474;-49
2021/05/24 10:25:36;;;;;;;16.45;6.22;;;18.90;92.30;;;;;;5074689;28;20113;-59
2021/05/24 10:28:04;;;;;;;13.43;6.28;;;18.90;92.20;;;;;;5073482;28;20028;-46
2021/05/24 10:30:35;;;;;;;22.55;6.78;;;18.90;92.20;;;;;;5074503;28;20059;-46
2021/05/24 10:33:05;;;;;;;17.50;6.70;;;18.90;92.30;;;;;;5070305;28;20025;-50
2021/05/24 10:35:38;;;;;;;22.42;7.38;;;18.90;92.30;;;;;;5074442;28;20029;-49
2021/05/24 10:38:22;;;;;;;18.77;7.82;;;18.90;92.40;;;;;;5073300;28;20039;-48
2021/05/24 10:40:50;;;;;;;23.77;7.53;;;18.90;92.30;;;;;;5074404;28;20021;-51
2021/05/24 10:43:19;;;;;;;15.48;6.82;;;18.90;92.30;;;;;;5074393;28;20558;-49
2021/05/24 10:45:47;;;;;;;17.23;6.28;;;18.90;92.30;;;;;;5074744;28;20436;-54
2021/05/24 10:48:20;;;;;;;18.73;7.65;;;18.90;92.30;;;;;;5073415;28;20081;-51
2021/05/24 10:51:10;;;;;;;21.35;7.53;;;18.80;92.20;;;;;;5074327;28;20357;-46
2021/05/24 10:53:44;;;;;;;12.70;7.43;;;18.80;92.30;;;;;;5071177;28;20020;-53
2021/05/24 10:56:21;;;;;;;18.52;8.75;;;18.70;92.10;;;;;;5073792;28;20059;-51
2021/05/24 10:58:48;;;;;;;16.38;7.72;;;18.70;92.00;;;;;;5072183;28;20027;-48
2021/05/24 11:01:17;;;;;;;16.08;6.80;;;18.70;91.90;;;;;;5074376;28;20021;-49
2021/05/24 11:04:14;;;;;;;13.15;6.10;;;18.60;92.00;;;;;;5074300;28;20047;-47
2021/05/24 11:06:42;;;;;;;14.18;6.43;;;18.60;91.80;;;;;;5053920;28;20028;-48
2021/05/24 11:09:09;;;;;;;11.98;5.90;;;18.70;91.70;;;;;;5077164;28;20024;-57
2021/05/24 11:11:39;;;;;;;17.27;6.22;;;18.60;91.60;;;;;;5073878;28;20040;-51
2021/05/24 11:14:08;;;;;;;14.23;5.97;;;18.60;91.50;;;;;;5074405;28;20066;-54
2021/05/24 11:16:40;;;;;;;14.95;6.43;;;18.60;91.40;;;;;;5074001;28;20129;-54
2021/05/24 11:19:16;;;;;;;13.32;6.20;;;18.60;91.40;;;;;;5071782;28;20021;-48
2021/05/24 11:21:56;;;;;;;19.65;6.53;;;18.50;91.50;;;;;;5074566;28;20475;-50
2021/05/24 11:24:36;;;;;;;16.25;6.10;;;18.50;91.60;;;;;;5073000;28;20131;-49
2021/05/24 11:27:10;;;;;;;9.77;5.85;;;18.50;91.50;;;;;;5073693;28;20153;-52
2021/05/24 11:29:39;;;;;;;12.68;5.97;;;18.50;91.40;;;;;;5071783;28;20075;-54
2021/05/24 11:32:18;;;;;;;10.00;5.68;;;18.50;91.40;;;;;;5073536;28;20115;-52
2021/05/24 11:34:46;;;;;;;11.90;5.93;;;18.50;91.40;;;;;;5070685;28;20025;-49
2021/05/24 11:37:13;;;;;;;10.45;5.60;;;18.50;91.40;;;;;;5073869;28;20035;-50
2021/05/24 11:39:49;;;;;;;12.35;6.45;;;18.50;91.30;;;;;;5068979;28;20426;-59
2021/05/24 11:42:30;;;;;;;9.68;5.07;;;18.50;91.30;;;;;;5069397;28;20111;-54
2021/05/24 11:45:01;;;;;;;8.55;5.43;;;18.40;91.30;;;;;;5072326;28;20041;-55
2021/05/24 11:47:30;;;;;;;9.52;5.60;;;18.50;91.30;;;;;;5073612;28;20467;-49
2021/05/24 11:50:01;;;;;;;11.15;5.22;;;18.40;91.30;;;;;;5070199;28;20043;-53
2021/05/24 11:52:31;;;;;;;9.63;5.87;;;18.50;91.30;;;;;;5073221;28;20375;-51
2021/05/24 11:54:58;;;;;;;11.02;5.68;;;18.40;91.30;;;;;;5073267;28;20262;-53
2021/05/24 11:57:30;;;;;;;12.80;5.70;;;18.40;91.30;;;;;;5073450;28;20031;-53
2021/05/24 11:59:58;;;;;;;9.20;5.05;;;18.40;91.30;;;;;;5072563;28;20071;-50
2021/05/24 12:02:25;;;;;;;13.00;5.55;;;18.40;91.30;;;;;;5073374;28;20077;-51
2021/05/24 12:04:53;;;;;;;7.70;4.60;;;18.40;91.30;;;;;;5073421;28;20036;-49
2021/05/24 12:07:22;;;;;;;12.25;5.22;;;18.30;91.30;;;;;;5073531;28;20360;-44
2021/05/24 12:09:51;;;;;;;7.82;5.10;;;18.30;91.30;;;;;;5071927;28;20070;-54
2021/05/24 12:12:39;;;;;;;11.02;5.18;;;18.30;91.30;;;;;;5073022;28;20040;-49
2021/05/24 12:15:12;;;;;;;12.18;4.90;;;18.30;91.20;;;;;;5072246;28;20028;-51
2021/05/24 12:17:39;;;;;;;10.90;4.97;;;18.30;91.30;;;;;;5072302;28;21864;-51
2021/05/24 12:20:12;;;;;;;10.25;5.28;;;18.30;91.20;;;;;;5072447;28;20028;-56
2021/05/24 12:22:41;;;;;;;;;;;18.30;91.20;;;;;;5073367;28;20031;-51
2021/05/24 12:25:11;;;;;;;9.88;5.25;;;18.30;91.20;;;;;;5072722;28;19935;-48
2021/05/24 12:27:38;;;;;;;7.35;4.82;;;18.30;91.20;;;;;;5072138;28;20380;-52
2021/05/24 12:30:16;;;;;;;10.23;5.00;;;18.30;91.20;;;;;;5072610;28;20020;-50
2021/05/24 12:32:53;;;;;;;9.88;4.35;;;18.20;91.20;;;;;;5072668;28;20044;-48
2021/05/24 12:35:28;;;;;;;6.88;3.80;;;18.30;91.20;;;;;;5069580;28;20062;-46
2021/05/24 12:38:08;;;;;;;8.10;5.18;;;18.20;91.20;;;;;;5067761;28;20046;-50
2021/05/24 12:40:36;;;;;;;7.68;4.53;;;18.20;91.10;;;;;;5072556;28;20048;-57
2021/05/24 12:43:05;;;;;;;8.35;5.05;;;18.20;91.10;;;;;;5072391;28;20039;-50
2021/05/24 12:45:32;;;;;;;8.15;5.07;;;18.20;91.10;;;;;;5072629;28;20036;-53
2021/05/24 12:48:17;;;;;;;8.10;4.43;;;18.20;91.10;;;;;;5071013;28;20488;-52
2021/05/24 12:50:48;;;;;;;8.32;4.72;;;18.10;91.10;;;;;;5072590;28;20506;-45
2021/05/24 12:53:18;;;;;;;8.40;4.50;;;18.10;91.00;;;;;;5072271;28;20066;-48
2021/05/24 12:55:46;;;;;;;8.60;4.07;;;18.20;91.00;;;;;;5072103;28;20025;-45